Alta, UT

10:45 AM MDT on August 20, 2014 (GMT -0600)
Sandy Bench | Change Station
CLOSE
Current Station
Personal Weather Station
Location: Sandy, UT
Elevation: 4930 ft
Nearby Weather Stations

Elev 4930 ft 40.57 °N, 111.83 °W | Updated 38 seconds ago

Scattered Clouds
Scattered Clouds
65.3 °F
Feels Like 65.3 °F
N
0.0
Wind Variable Wind from North
Gusts 4.0 mph

Today
High -- | Low -- °F
--% Chance of Precip.
Yesterday
High -- | Low -- °F
Precip. -- in
6:42 AM 8:17 PM
Waning Crescent, 20% visible
Pressure 29.87 in
Visibility 10.0 miles
Clouds Few 5000 ft
Few 6500 ft
Scattered Clouds 11000 ft
Scattered Clouds 16000 ft
Dew Point 44 °F
Humidity 46%
Rainfall -999.00 in
Snow Depth 0 in , 0 in , 0 in
UV 3 out of 12
Pollen 7.00 out of 12
PM2.5 Good
Flu Activity Not available.
METAR KSLC 201553Z 16015G20KT 10SM FEW050 FEW065 SCT110 SCT160 19/13 A3000 RMK AO2 SLP115 VIRGA DSNT W SH DSNT SE T01890128

More Conditions Fewer Conditions

Pressure 29.87 in
Visibility 10.0 miles
Clouds Few 5000 ft
Few 6500 ft
Scattered Clouds 11000 ft
Scattered Clouds 16000 ft
Dew Point 44 °F
Humidity 46%
Rainfall -999.00 in
Snow Depth 0 in , 0 in , 0 in
UV 3 out of 12
Pollen 7.00 out of 12
PM2.5 Good
Flu Activity Not available.
METAR KSLC 201553Z 16015G20KT 10SM FEW050 FEW065 SCT110 SCT160 19/13 A3000 RMK AO2 SLP115 VIRGA DSNT W SH DSNT SE T01890128

More Conditions Fewer Conditions

10-Day Weather Forecast

Almanac

Astronomy

Aug. 20, 2014 Rise Set
Actual Time 6:42 AM MDT 8:17 PM MDT
Civil Twilight 6:13 AM MDT 8:46 PM MDT
Nautical Twilight 5:39 AM MDT 9:21 PM MDT
Astronomical Twilight 5:01 AM MDT 9:58 PM MDT
Moon 2:25 AM MDT 5:05 PM MDT
Length of Visible Light 14h 32m
Length of Day
13h 34m
Tomorrow will be 2m 28s shorter.
Waning Crescent, 20% of the Moon is Illuminated
Today
Waning Crescent
Aug 25
New
Sep 2
First Quarter
Sep 8
Full
Sep 15
Last Quarter

Today's Extremes

State Highs State Lows

Community

WunderPhotos

Upload Photos

1,745,691 photos uploaded!

WunderBlogs® & News

Nearby

Air Quality

  Air Quality AQ Index Pollutant
Yesterday Good
OZONE
Yesterday Good
PM2.5
Current Good
PM2.5
Wednesday Good
OZONE
Thursday Good
OZONE
Friday Good
OZONE

Snow Depth

Station Depth Elevation
Snowbird 0 in 9640 ft
Brighton 0 in 8750 ft
Mill-d North 0 in 8960 ft
Thaynes Canyon 0 in 9200 ft
Louis Meadow 0 in 6700 ft

Earthquake Activity

City Distance Mag. Time & Date
No recent earthquake activity has been reported nearby.
Minimum magnitude displayed is 2.5.

Coastal Water Temperatures

Place Temperature
No Stations Reporting

Nearby Weather Stations